createdAt,value
2022-10-22T00:02:21.077Z,1.03
2022-10-22T00:04:49.002Z,0.70
2022-10-22T00:07:17.264Z,0.60
2022-10-22T00:09:44.231Z,0.60
2022-10-22T00:12:14.042Z,0.97
2022-10-22T00:14:41.467Z,0.47
2022-10-22T00:17:11.566Z,0.40
2022-10-22T00:19:39.075Z,0.50
2022-10-22T00:22:06.316Z,0.57
2022-10-22T00:24:34.020Z,0.60
2022-10-22T00:27:00.955Z,0.40
2022-10-22T00:29:27.708Z,0.50
2022-10-22T00:34:23.036Z,0.67
2022-10-22T00:36:51.242Z,0.40
2022-10-22T00:39:20.195Z,1.53
2022-10-22T00:41:48.977Z,0.40
2022-10-22T00:44:53.010Z,0.53
2022-10-22T00:47:20.602Z,0.40
2022-10-22T00:49:47.360Z,0.37
2022-10-22T00:52:14.544Z,0.87
2022-10-22T00:54:41.719Z,0.50
2022-10-22T00:57:08.956Z,0.30
2022-10-22T00:59:36.674Z,0.70
2022-10-22T01:02:04.184Z,1.13
2022-10-22T01:04:30.920Z,0.40
2022-10-22T01:06:57.671Z,0.40
2022-10-22T01:09:46.035Z,0.40
2022-10-22T01:12:21.028Z,0.30
2022-10-22T01:15:05.715Z,0.30
2022-10-22T01:17:41.191Z,0.30
2022-10-22T01:20:39.267Z,0.40
2022-10-22T01:23:24.688Z,0.50
2022-10-22T01:26:33.690Z,0.43
2022-10-22T01:29:00.340Z,0.63
2022-10-22T01:31:34.465Z,0.23
2022-10-22T01:34:01.552Z,0.40
2022-10-22T01:36:31.233Z,0.40
2022-10-22T01:38:59.187Z,0.63
2022-10-22T01:41:29.928Z,0.30
2022-10-22T01:43:56.770Z,0.30
2022-10-22T01:46:25.666Z,0.20
2022-10-22T01:49:16.817Z,0.40
2022-10-22T01:52:02.193Z,0.30
2022-10-22T01:54:40.065Z,0.30
2022-10-22T01:57:51.151Z,1.00
2022-10-22T02:00:19.069Z,0.43
2022-10-22T02:02:55.219Z,0.40
2022-10-22T02:05:25.429Z,0.40
2022-10-22T02:08:00.986Z,0.37
2022-10-22T02:10:29.508Z,0.50
2022-10-22T02:12:57.820Z,0.27
2022-10-22T02:15:26.343Z,0.50
2022-10-22T02:17:53.554Z,0.40
2022-10-22T02:20:24.365Z,0.33
2022-10-22T02:22:51.060Z,0.40
2022-10-22T02:25:17.819Z,0.30
2022-10-22T02:27:47.956Z,0.40
2022-10-22T02:30:17.448Z,0.40
2022-10-22T02:32:51.008Z,0.40
2022-10-22T02:35:21.565Z,0.40
2022-10-22T02:37:49.481Z,0.40
2022-10-22T02:40:16.515Z,0.33
2022-10-22T02:42:43.522Z,0.40
2022-10-22T02:45:13.278Z,0.40
2022-10-22T02:47:39.914Z,0.57
2022-10-22T02:50:10.386Z,0.63
2022-10-22T02:52:38.242Z,0.43
2022-10-22T02:55:06.125Z,0.30
2022-10-22T02:57:33.109Z,0.47
2022-10-22T02:59:59.914Z,0.40
2022-10-22T03:02:26.757Z,0.30
2022-10-22T03:04:53.477Z,0.30
2022-10-22T03:07:20.237Z,0.47
2022-10-22T03:09:47.072Z,0.53
2022-10-22T03:12:13.848Z,0.43
2022-10-22T03:14:40.730Z,1.13
2022-10-22T03:17:07.651Z,0.30
2022-10-22T03:19:34.318Z,0.87
2022-10-22T03:22:03.675Z,1.30
2022-10-22T03:24:36.332Z,0.60
2022-10-22T03:27:03.178Z,0.40
2022-10-22T03:29:31.943Z,0.50
2022-10-22T03:31:58.699Z,0.40
2022-10-22T03:34:25.437Z,0.40
2022-10-22T03:36:52.515Z,0.40
2022-10-22T03:39:20.380Z,0.23
2022-10-22T03:41:48.038Z,0.50
2022-10-22T03:44:15.463Z,0.23
2022-10-22T03:46:42.412Z,0.30
2022-10-22T03:49:09.193Z,0.30
2022-10-22T03:51:36.104Z,0.40
2022-10-22T03:54:03.627Z,0.60
2022-10-22T03:56:30.533Z,0.33
2022-10-22T03:58:58.652Z,0.50
2022-10-22T04:01:26.697Z,0.37
2022-10-22T04:03:53.954Z,0.43
2022-10-22T04:06:20.722Z,0.40
2022-10-22T04:08:47.501Z,0.43
2022-10-22T04:11:15.419Z,2.00
2022-10-22T04:13:42.877Z,0.30
2022-10-22T04:16:15.746Z,0.77
2022-10-22T04:18:43.419Z,0.50
2022-10-22T04:21:11.752Z,0.40
2022-10-22T04:23:38.937Z,0.40
2022-10-22T04:26:08.087Z,0.40
2022-10-22T04:28:35.255Z,0.30
2022-10-22T04:31:08.427Z,0.40
2022-10-22T04:33:35.112Z,0.63
2022-10-22T04:36:16.162Z,0.63
2022-10-22T04:38:43.942Z,0.33
2022-10-22T04:41:18.652Z,0.50
2022-10-22T04:43:45.977Z,0.30
2022-10-22T04:46:16.238Z,0.40
2022-10-22T04:48:43.994Z,0.67
2022-10-22T04:51:17.298Z,0.50
2022-10-22T04:53:44.463Z,0.40
2022-10-22T04:56:20.705Z,0.50
2022-10-22T04:58:52.014Z,0.50
2022-10-22T05:01:21.664Z,0.50
2022-10-22T05:03:50.170Z,0.50
2022-10-22T05:06:17.664Z,0.40
2022-10-22T05:08:44.603Z,0.50
2022-10-22T05:11:12.314Z,0.50
2022-10-22T05:13:39.150Z,1.10
2022-10-22T05:16:06.157Z,0.77
2022-10-22T05:18:37.123Z,1.13
2022-10-22T05:21:05.065Z,0.40
2022-10-22T05:23:31.866Z,0.60
2022-10-22T05:26:05.541Z,0.80
2022-10-22T05:28:33.100Z,0.40
2022-10-22T05:31:00.994Z,0.50
2022-10-22T05:33:28.774Z,0.63
2022-10-22T05:35:55.932Z,0.60
2022-10-22T05:38:23.106Z,0.77
2022-10-22T05:41:03.072Z,0.57
2022-10-22T05:43:29.959Z,0.63
2022-10-22T05:45:57.137Z,1.10
2022-10-22T05:48:23.891Z,0.40
2022-10-22T05:50:50.862Z,0.77
2022-10-22T05:53:18.637Z,0.50
2022-10-22T05:55:45.809Z,0.50
2022-10-22T05:58:13.324Z,0.37
2022-10-22T06:00:40.167Z,0.40
2022-10-22T06:03:06.875Z,0.47
2022-10-22T06:05:37.430Z,0.40
2022-10-22T06:08:04.622Z,0.40
2022-10-22T06:10:31.873Z,0.40
2022-10-22T06:12:58.721Z,0.50
2022-10-22T06:15:25.511Z,0.40
2022-10-22T06:17:52.272Z,0.50
2022-10-22T06:20:19.114Z,0.50
2022-10-22T06:22:46.104Z,0.57
2022-10-22T06:25:14.221Z,0.63
2022-10-22T06:27:40.997Z,0.50
2022-10-22T06:30:08.479Z,0.57
2022-10-22T06:32:35.228Z,0.53
2022-10-22T06:35:01.940Z,0.90
2022-10-22T06:37:28.706Z,0.50
2022-10-22T06:39:55.441Z,0.70
2022-10-22T06:42:22.120Z,3.00
2022-10-22T06:44:48.823Z,1.00
2022-10-22T06:47:15.586Z,0.60
2022-10-22T06:49:42.684Z,0.50
2022-10-22T06:52:09.431Z,0.60
2022-10-22T06:54:36.247Z,0.60
2022-10-22T06:57:02.945Z,0.90
2022-10-22T06:59:29.769Z,0.60
2022-10-22T07:01:56.611Z,0.53
2022-10-22T07:04:23.259Z,0.97
2022-10-22T07:06:49.950Z,0.53
2022-10-22T07:11:46.288Z,0.60
2022-10-22T07:14:14.173Z,0.87
2022-10-22T07:16:45.791Z,0.60
2022-10-22T07:19:13.170Z,0.50
2022-10-22T07:21:40.091Z,0.73
2022-10-22T07:24:07.467Z,0.50
2022-10-22T07:26:34.383Z,0.50
2022-10-22T07:29:01.551Z,0.60
2022-10-22T07:31:28.529Z,0.40
2022-10-22T07:33:55.257Z,0.70
2022-10-22T07:36:21.969Z,0.60
2022-10-22T07:38:54.842Z,0.50
2022-10-22T07:41:21.573Z,0.70
2022-10-22T07:43:48.480Z,0.60
2022-10-22T07:46:16.895Z,1.27
2022-10-22T07:48:45.812Z,0.50
2022-10-22T07:51:14.242Z,0.50
2022-10-22T07:53:41.030Z,0.60
2022-10-22T07:56:11.060Z,0.60
2022-10-22T07:58:37.858Z,0.60
2022-10-22T08:01:05.878Z,0.57
2022-10-22T08:03:33.134Z,0.50
2022-10-22T08:06:00.510Z,0.70
2022-10-22T08:08:30.470Z,0.57
2022-10-22T08:11:00.403Z,0.57
2022-10-22T08:13:28.394Z,0.70
2022-10-22T08:15:57.503Z,0.50
2022-10-22T08:18:24.846Z,0.70
2022-10-22T08:20:51.846Z,0.70
2022-10-22T08:23:18.736Z,0.70
2022-10-22T08:25:45.708Z,2.03
2022-10-22T08:28:12.419Z,0.60
2022-10-22T08:30:40.290Z,1.20
2022-10-22T08:33:07.057Z,0.70
2022-10-22T08:35:33.850Z,0.70
2022-10-22T08:38:00.559Z,0.73
2022-10-22T08:40:38.828Z,0.70
2022-10-22T08:43:29.383Z,0.70
2022-10-22T08:46:00.049Z,0.80
2022-10-22T08:48:55.480Z,0.73
2022-10-22T08:51:26.545Z,0.70
2022-10-22T08:54:27.295Z,0.70
2022-10-22T08:57:03.047Z,0.70
2022-10-22T08:59:38.624Z,0.67
2022-10-22T09:02:25.704Z,2.73
2022-10-22T09:05:17.366Z,0.77
2022-10-22T09:07:48.597Z,0.60
2022-10-22T09:10:15.489Z,0.70
2022-10-22T09:12:42.362Z,0.70
2022-10-22T09:15:16.351Z,0.70
2022-10-22T09:17:54.754Z,0.80
2022-10-22T09:20:29.881Z,0.60
2022-10-22T09:23:16.588Z,0.60
2022-10-22T09:25:45.024Z,1.07
2022-10-22T09:28:11.789Z,2.03
2022-10-22T09:30:39.975Z,0.50
2022-10-22T09:33:06.637Z,0.67
2022-10-22T09:35:35.415Z,1.13
2022-10-22T09:38:07.425Z,0.53
2022-10-22T09:40:44.747Z,0.90
2022-10-22T09:43:15.225Z,0.90
2022-10-22T09:45:42.744Z,0.60
2022-10-22T09:48:15.343Z,0.60
2022-10-22T09:50:46.044Z,1.17
2022-10-22T09:53:25.642Z,0.60
2022-10-22T09:58:28.493Z,0.60
2022-10-22T10:01:00.292Z,0.70
2022-10-22T10:03:29.109Z,0.40
2022-10-22T10:06:03.201Z,0.80
2022-10-22T10:08:33.297Z,0.60
2022-10-22T10:11:19.896Z,0.50
2022-10-22T10:13:53.825Z,0.70
2022-10-22T10:16:33.190Z,0.60
2022-10-22T10:19:26.595Z,0.70
2022-10-22T10:22:02.360Z,0.50
2022-10-22T10:24:52.954Z,0.60
2022-10-22T10:27:28.616Z,0.60
2022-10-22T10:30:16.150Z,0.50
2022-10-22T10:32:58.091Z,0.40
2022-10-22T10:35:27.191Z,0.57
2022-10-22T10:38:29.784Z,0.50
2022-10-22T10:41:06.021Z,0.70
2022-10-22T10:43:53.502Z,0.67
2022-10-22T10:46:43.241Z,0.60
2022-10-22T10:49:14.479Z,0.60
2022-10-22T10:52:21.497Z,0.50
2022-10-22T10:54:54.737Z,0.77
2022-10-22T10:57:47.042Z,2.10
2022-10-22T11:00:22.300Z,0.70
2022-10-22T11:03:07.745Z,0.87
2022-10-22T11:05:55.556Z,2.20
2022-10-22T11:08:37.382Z,0.60
2022-10-22T11:11:09.073Z,2.33
2022-10-22T11:13:43.476Z,0.43
2022-10-22T11:16:32.005Z,0.80
2022-10-22T11:19:04.327Z,0.67
2022-10-22T11:21:33.789Z,0.70
2022-10-22T11:24:20.160Z,0.93
2022-10-22T11:27:04.183Z,0.70
2022-10-22T11:29:35.461Z,2.57
2022-10-22T11:32:03.332Z,1.40
2022-10-22T11:34:57.118Z,2.13
2022-10-22T11:37:27.284Z,0.63
2022-10-22T11:40:04.161Z,1.07
2022-10-22T11:42:36.657Z,0.63
2022-10-22T11:45:15.370Z,0.90
2022-10-22T11:47:54.023Z,2.27
2022-10-22T11:50:25.397Z,0.60
2022-10-22T11:53:04.776Z,0.90
2022-10-22T11:55:46.064Z,1.23
2022-10-22T11:58:28.012Z,1.30
2022-10-22T12:01:10.123Z,0.87
2022-10-22T12:03:51.853Z,0.50
2022-10-22T12:06:24.427Z,1.40
2022-10-22T12:08:52.414Z,3.03
2022-10-22T12:11:40.470Z,0.53
2022-10-22T12:14:28.166Z,1.30
2022-10-22T12:16:58.012Z,0.40
2022-10-22T12:19:27.568Z,0.57
2022-10-22T12:21:55.693Z,0.93
2022-10-22T12:24:24.183Z,1.50
2022-10-22T12:26:52.758Z,1.30
2022-10-22T12:29:23.722Z,0.67
2022-10-22T12:31:50.792Z,0.70
2022-10-22T12:34:21.777Z,0.97
2022-10-22T12:36:49.886Z,0.90
2022-10-22T12:39:19.374Z,1.00
2022-10-22T12:41:46.543Z,0.80
2022-10-22T12:44:17.887Z,1.73
2022-10-22T12:46:46.797Z,1.37
2022-10-22T12:49:20.404Z,1.10
2022-10-22T12:51:47.899Z,0.67
2022-10-22T12:54:23.145Z,0.70
2022-10-22T12:56:50.373Z,0.70
2022-10-22T12:59:29.372Z,0.73
2022-10-22T13:01:56.462Z,0.70
2022-10-22T13:04:37.385Z,1.00
2022-10-22T13:07:19.913Z,0.83
2022-10-22T13:10:01.245Z,0.60
2022-10-22T13:12:35.173Z,0.70
2022-10-22T13:15:42.032Z,0.97
2022-10-22T13:18:19.274Z,0.80
2022-10-22T13:21:32.601Z,0.93
2022-10-22T13:24:01.644Z,0.70
2022-10-22T13:26:36.883Z,0.70
2022-10-22T13:29:10.719Z,2.00
2022-10-22T13:31:38.446Z,1.70
2022-10-22T13:34:11.699Z,0.60
2022-10-22T13:36:39.752Z,0.60
2022-10-22T13:39:08.897Z,0.70
2022-10-22T13:44:06.584Z,1.10
2022-10-22T13:49:23.492Z,0.80
2022-10-22T13:51:51.765Z,1.00
2022-10-22T13:54:21.557Z,1.33
2022-10-22T13:56:48.556Z,0.80
2022-10-22T13:59:18.374Z,1.43
2022-10-22T14:01:48.203Z,2.30
2022-10-22T14:04:15.642Z,3.07
2022-10-22T14:06:44.140Z,0.80
2022-10-22T14:09:14.318Z,2.00
2022-10-22T14:11:41.478Z,2.57
2022-10-22T14:14:09.268Z,0.90
2022-10-22T14:16:37.556Z,2.33
2022-10-22T14:19:05.102Z,1.17
2022-10-22T14:21:35.643Z,0.97
2022-10-22T14:24:02.487Z,0.80
2022-10-22T14:26:33.269Z,0.97
2022-10-22T14:29:16.211Z,1.03
2022-10-22T14:31:44.825Z,1.70
2022-10-22T14:34:16.032Z,0.70
2022-10-22T14:36:45.919Z,0.83
2022-10-22T14:39:13.798Z,1.43
2022-10-22T14:41:41.073Z,1.77
2022-10-22T14:44:12.572Z,1.40
2022-10-22T14:46:42.668Z,1.37
2022-10-22T14:49:15.303Z,0.70
2022-10-22T14:51:42.465Z,1.00
2022-10-22T14:54:09.392Z,0.80
2022-10-22T14:59:04.475Z,2.77
2022-10-22T15:01:31.306Z,1.57
2022-10-22T15:03:58.183Z,1.00
2022-10-22T15:06:25.228Z,2.50
2022-10-22T15:08:52.178Z,0.80
2022-10-22T15:11:19.459Z,0.90
2022-10-22T15:13:48.665Z,0.77
2022-10-22T15:16:16.529Z,1.00
2022-10-22T15:18:43.192Z,1.17
2022-10-22T15:21:20.098Z,0.87
2022-10-22T15:23:47.404Z,0.90
2022-10-22T15:26:14.431Z,1.23
2022-10-22T15:28:41.701Z,0.80
2022-10-22T15:31:08.758Z,1.10
2022-10-22T15:33:35.981Z,1.10
2022-10-22T15:36:14.558Z,1.13
2022-10-22T15:38:41.715Z,0.97
2022-10-22T15:41:10.233Z,1.27
2022-10-22T15:43:37.256Z,0.93
2022-10-22T15:46:15.169Z,0.83
2022-10-22T15:48:42.588Z,1.47
2022-10-22T15:51:17.288Z,1.47
2022-10-22T15:53:45.394Z,1.53
2022-10-22T15:56:12.541Z,1.00
2022-10-22T15:58:39.224Z,1.17
2022-10-22T16:01:11.168Z,1.10
2022-10-22T16:03:38.579Z,1.10
2022-10-22T16:06:06.597Z,0.90
2022-10-22T16:08:33.739Z,1.30
2022-10-22T16:11:08.974Z,1.87
2022-10-22T16:13:37.216Z,1.73
2022-10-22T16:16:10.420Z,2.03
2022-10-22T16:18:37.066Z,1.33
2022-10-22T16:21:03.796Z,1.40
2022-10-22T16:23:30.563Z,1.70
2022-10-22T16:25:57.408Z,1.70
2022-10-22T16:28:24.121Z,1.30
2022-10-22T16:30:50.844Z,1.60
2022-10-22T16:33:17.483Z,1.60
2022-10-22T16:35:44.132Z,2.10
2022-10-22T16:38:11.152Z,3.60
2022-10-22T16:40:38.139Z,1.83
2022-10-22T16:43:05.194Z,2.90
2022-10-22T16:45:31.879Z,3.13
2022-10-22T16:47:58.601Z,3.00
2022-10-22T16:50:25.320Z,3.03
2022-10-22T16:52:52.428Z,5.03
2022-10-22T16:55:19.173Z,3.90
2022-10-22T16:57:51.694Z,5.27
2022-10-22T17:00:18.618Z,5.73
2022-10-22T17:02:45.339Z,5.67
2022-10-22T17:05:12.018Z,5.87
2022-10-22T17:07:38.667Z,6.13
2022-10-22T17:10:05.919Z,7.77
2022-10-22T17:15:07.786Z,7.47
2022-10-22T17:17:34.619Z,8.10
2022-10-22T17:20:01.568Z,7.47
2022-10-22T17:22:28.343Z,8.80
2022-10-22T17:25:08.050Z,9.90
2022-10-22T17:27:34.758Z,7.40
2022-10-22T17:30:01.541Z,7.97
2022-10-22T17:32:29.835Z,8.90
2022-10-22T17:34:56.562Z,9.13
2022-10-22T17:37:23.360Z,7.77
2022-10-22T17:39:50.146Z,7.57
2022-10-22T17:42:16.926Z,7.63
2022-10-22T17:44:43.664Z,8.83
2022-10-22T17:47:10.451Z,9.57
2022-10-22T17:49:38.090Z,8.40
2022-10-22T17:52:04.959Z,8.37
2022-10-22T17:54:31.675Z,7.43
2022-10-22T17:56:58.415Z,8.03
2022-10-22T17:59:25.104Z,8.07
2022-10-22T18:01:56.892Z,12.20
2022-10-22T18:04:26.240Z,10.07
2022-10-22T18:06:52.962Z,8.47
2022-10-22T18:09:19.724Z,8.10
2022-10-22T18:11:50.203Z,8.53
2022-10-22T18:14:18.826Z,8.17
2022-10-22T18:16:46.039Z,8.20
2022-10-22T18:19:15.610Z,9.13
2022-10-22T18:21:42.892Z,8.23
2022-10-22T18:24:10.329Z,8.60
2022-10-22T18:26:37.826Z,7.87
2022-10-22T18:29:04.568Z,7.27
2022-10-22T18:31:31.327Z,8.40
2022-10-22T18:33:58.521Z,10.07
2022-10-22T18:36:26.869Z,8.17
2022-10-22T18:38:55.869Z,8.20
2022-10-22T18:41:23.108Z,8.57
2022-10-22T18:43:54.339Z,8.13
2022-10-22T18:46:21.894Z,8.57
2022-10-22T18:48:48.592Z,10.10
2022-10-22T18:51:15.502Z,8.30
2022-10-22T18:53:44.172Z,8.13
2022-10-22T18:56:13.329Z,9.87
2022-10-22T18:58:41.468Z,11.10
2022-10-22T19:01:09.842Z,10.43
2022-10-22T19:03:36.662Z,9.10
2022-10-22T19:06:03.654Z,7.90
2022-10-22T19:08:30.698Z,7.73
2022-10-22T19:10:58.387Z,10.17
2022-10-22T19:13:25.746Z,7.20
2022-10-22T19:15:53.183Z,7.77
2022-10-22T19:18:20.214Z,7.13
2022-10-22T19:20:48.235Z,9.13
2022-10-22T19:23:19.888Z,7.43
2022-10-22T19:25:47.538Z,6.23
2022-10-22T19:28:14.209Z,8.03
2022-10-22T19:30:44.647Z,6.10
2022-10-22T19:33:11.356Z,7.43
2022-10-22T19:35:38.135Z,7.37
2022-10-22T19:38:04.808Z,7.03
2022-10-22T19:40:31.536Z,5.77
2022-10-22T19:42:58.226Z,5.40
2022-10-22T19:45:24.870Z,6.13
2022-10-22T19:47:51.506Z,5.93
2022-10-22T19:50:18.262Z,5.30
2022-10-22T19:52:45.100Z,5.83
2022-10-22T19:55:11.898Z,6.17
2022-10-22T19:57:38.907Z,5.27
2022-10-22T20:00:06.162Z,4.93
2022-10-22T20:02:32.868Z,5.40
2022-10-22T20:04:59.630Z,4.70
2022-10-22T20:07:29.053Z,5.77
2022-10-22T20:09:55.894Z,6.60
2022-10-22T20:12:22.655Z,6.43
2022-10-22T20:14:49.382Z,4.67
2022-10-22T20:17:16.126Z,5.00
2022-10-22T20:19:42.966Z,4.80
2022-10-22T20:22:10.919Z,5.10
2022-10-22T20:24:38.435Z,5.47
2022-10-22T20:27:05.159Z,4.77
2022-10-22T20:29:32.367Z,4.93
2022-10-22T20:32:02.338Z,4.97
2022-10-22T20:34:31.276Z,4.63
2022-10-22T20:36:58.015Z,5.27
2022-10-22T20:39:24.803Z,4.73
2022-10-22T20:41:51.768Z,5.70
2022-10-22T20:44:19.219Z,6.33
2022-10-22T20:46:46.072Z,6.27
2022-10-22T20:49:15.471Z,5.07
2022-10-22T20:51:42.492Z,5.57
2022-10-22T20:54:09.896Z,4.67
2022-10-22T20:56:38.970Z,4.83
2022-10-22T20:59:08.118Z,4.57
2022-10-22T21:01:41.669Z,4.07
2022-10-22T21:04:08.797Z,5.93
2022-10-22T21:06:38.305Z,4.50
2022-10-22T21:09:12.194Z,4.43
2022-10-22T21:11:40.627Z,4.00
2022-10-22T21:14:09.641Z,4.87
2022-10-22T21:16:38.252Z,4.30
2022-10-22T21:19:04.916Z,4.17
2022-10-22T21:21:31.648Z,4.37
2022-10-22T21:23:58.472Z,4.70
2022-10-22T21:26:25.329Z,3.47
2022-10-22T21:28:52.102Z,4.50
2022-10-22T21:31:21.985Z,4.23
2022-10-22T21:33:50.125Z,3.53
2022-10-22T21:36:22.440Z,5.10
2022-10-22T21:38:53.258Z,4.10
2022-10-22T21:41:22.690Z,4.27
2022-10-22T21:43:50.091Z,3.50
2022-10-22T21:46:20.649Z,4.77
2022-10-22T21:48:48.076Z,4.70
2022-10-22T21:51:18.184Z,4.57
2022-10-22T21:53:45.246Z,5.47
2022-10-22T21:56:19.129Z,4.97
2022-10-22T21:58:46.051Z,3.87
2022-10-22T22:01:13.779Z,4.87
2022-10-22T22:03:45.500Z,4.43
2022-10-22T22:06:12.606Z,3.90
2022-10-22T22:08:39.904Z,5.17
2022-10-22T22:11:10.827Z,4.23
2022-10-22T22:13:38.205Z,5.07
2022-10-22T22:16:13.258Z,5.00
2022-10-22T22:18:41.079Z,4.00
2022-10-22T22:21:14.310Z,4.07
2022-10-22T22:23:43.712Z,4.30
2022-10-22T22:26:11.039Z,4.17
2022-10-22T22:28:37.937Z,4.47
2022-10-22T22:31:16.169Z,4.67
2022-10-22T22:33:43.125Z,5.37
2022-10-22T22:36:10.534Z,4.40
2022-10-22T22:38:37.771Z,4.07
2022-10-22T22:41:05.325Z,5.17
2022-10-22T22:43:32.382Z,4.67
2022-10-22T22:46:04.436Z,4.40
2022-10-22T22:48:31.577Z,4.20
2022-10-22T22:51:01.843Z,4.03
2022-10-22T22:53:28.947Z,4.43
2022-10-22T22:56:19.873Z,4.40
2022-10-22T22:58:46.843Z,4.80
2022-10-22T23:01:16.501Z,4.93
2022-10-22T23:03:44.622Z,4.57
2022-10-22T23:06:12.227Z,4.57
2022-10-22T23:08:39.209Z,5.13
2022-10-22T23:11:13.774Z,4.17
2022-10-22T23:13:42.088Z,4.27
2022-10-22T23:16:15.646Z,6.00
2022-10-22T23:18:42.990Z,5.43
2022-10-22T23:21:18.196Z,5.90
2022-10-22T23:23:46.644Z,4.27
2022-10-22T23:26:14.580Z,5.10
2022-10-22T23:28:41.491Z,4.27
2022-10-22T23:31:09.719Z,3.70
2022-10-22T23:33:36.385Z,4.60
2022-10-22T23:36:04.060Z,3.60
2022-10-22T23:38:30.749Z,5.60
2022-10-22T23:40:57.686Z,3.70
2022-10-22T23:43:25.021Z,4.03
2022-10-22T23:45:52.404Z,3.80
2022-10-22T23:48:19.503Z,4.00
2022-10-22T23:50:46.729Z,3.97
2022-10-22T23:53:13.827Z,4.77
2022-10-22T23:55:41.440Z,3.20
2022-10-22T23:58:08.425Z,4.57
